createdAt,value
2023-02-28T00:03:44.417Z,23.20
2023-02-28T00:08:47.960Z,23.50
2023-02-28T00:13:50.433Z,28.60
2023-02-28T00:18:53.737Z,23.80
2023-02-28T00:23:55.555Z,17.00
2023-02-28T00:28:57.242Z,27.30
2023-02-28T00:34:01.482Z,27.80
2023-02-28T00:39:03.283Z,17.70
2023-02-28T00:44:05.661Z,21.00
2023-02-28T00:49:09.325Z,23.10
2023-02-28T00:54:13.317Z,30.00
2023-02-28T00:59:16.514Z,49.90
2023-02-28T01:04:18.331Z,41.90
2023-02-28T01:09:20.166Z,18.80
2023-02-28T01:14:21.876Z,31.10
2023-02-28T01:19:23.801Z,54.00
2023-02-28T01:24:25.490Z,33.70
2023-02-28T01:29:27.180Z,27.10
2023-02-28T01:34:28.968Z,35.20
2023-02-28T01:39:30.660Z,25.40
2023-02-28T01:45:07.528Z,19.00
2023-02-28T01:50:15.961Z,15.60
2023-02-28T01:55:20.644Z,31.30
2023-02-28T02:00:27.719Z,17.10
2023-02-28T02:05:35.557Z,20.90
2023-02-28T02:10:42.405Z,18.20
2023-02-28T02:15:55.698Z,32.30
2023-02-28T02:21:28.069Z,27.80
2023-02-28T02:27:19.270Z,22.60
2023-02-28T02:33:07.491Z,34.00
2023-02-28T02:38:35.431Z,27.30
2023-02-28T02:43:45.404Z,12.80
2023-02-28T02:48:48.327Z,25.80
2023-02-28T02:53:55.836Z,25.70
2023-02-28T02:59:03.864Z,23.40
2023-02-28T03:04:17.203Z,16.10
2023-02-28T03:09:18.904Z,27.80
2023-02-28T03:14:28.173Z,27.40
2023-02-28T03:19:51.514Z,55.60
2023-02-28T03:25:01.006Z,45.60
2023-02-28T03:30:35.341Z,35.00
2023-02-28T03:35:42.731Z,38.90
2023-02-28T03:40:51.192Z,37.00
2023-02-28T03:45:55.235Z,34.20
2023-02-28T03:51:00.579Z,36.90
2023-02-28T03:56:17.262Z,40.80
2023-02-28T04:01:31.702Z,79.60
2023-02-28T04:06:35.140Z,43.90
2023-02-28T04:11:42.926Z,44.80
2023-02-28T04:16:44.699Z,58.80
2023-02-28T04:21:49.383Z,34.80
2023-02-28T04:26:53.512Z,37.20
2023-02-28T04:31:57.282Z,32.10
2023-02-28T04:37:12.247Z,32.70
2023-02-28T04:42:15.033Z,90.70
2023-02-28T04:47:17.596Z,94.20
2023-02-28T04:52:19.560Z,49.80
2023-02-28T04:57:21.235Z,47.90
2023-02-28T05:02:24.927Z,48.80
2023-02-28T05:07:26.769Z,50.20
2023-02-28T05:12:28.642Z,40.70
2023-02-28T05:17:30.487Z,75.60
2023-02-28T05:22:33.021Z,35.50
2023-02-28T05:27:34.999Z,41.20
2023-02-28T05:32:43.835Z,38.20
2023-02-28T05:37:45.553Z,46.40
2023-02-28T05:42:48.018Z,50.80
2023-02-28T05:47:49.766Z,52.60
2023-02-28T05:52:52.141Z,33.80
2023-02-28T05:57:53.960Z,40.40
2023-02-28T06:02:58.994Z,27.90
2023-02-28T06:13:05.732Z,41.90
2023-02-28T06:18:07.761Z,71.00
2023-02-28T06:23:09.499Z,41.20
2023-02-28T06:28:11.170Z,37.10
2023-02-28T06:33:12.911Z,23.30
2023-02-28T06:38:14.924Z,19.70
2023-02-28T06:43:16.875Z,56.40
2023-02-28T06:48:18.876Z,43.10
2023-02-28T06:53:21.066Z,33.00
2023-02-28T06:58:22.884Z,32.80
2023-02-28T07:03:24.806Z,40.10
2023-02-28T07:08:27.794Z,17.30
2023-02-28T07:13:29.848Z,47.00
2023-02-28T07:18:32.264Z,47.40
2023-02-28T07:23:36.657Z,26.30
2023-02-28T07:29:03.647Z,43.10
2023-02-28T07:34:05.512Z,14.60
2023-02-28T07:39:07.365Z,21.10
2023-02-28T07:44:09.669Z,29.20
2023-02-28T07:49:11.425Z,37.30
2023-02-28T07:54:13.046Z,26.20
2023-02-28T07:59:14.696Z,31.60
2023-02-28T08:04:16.447Z,43.90
2023-02-28T08:09:18.107Z,38.00
2023-02-28T08:14:19.842Z,61.00
2023-02-28T08:19:21.473Z,59.90
2023-02-28T08:24:23.511Z,40.00
2023-02-28T08:29:25.201Z,19.90
2023-02-28T08:34:26.930Z,29.60
2023-02-28T08:39:28.654Z,53.70
2023-02-28T08:44:30.364Z,18.20
2023-02-28T08:49:32.117Z,35.90
2023-02-28T08:54:35.247Z,39.00
2023-02-28T08:59:36.903Z,31.80
2023-02-28T09:04:38.609Z,34.10
2023-02-28T09:09:54.452Z,17.50
2023-02-28T09:14:56.191Z,21.50
2023-02-28T09:19:58.474Z,50.40
2023-02-28T09:25:00.159Z,27.40
2023-02-28T09:30:01.887Z,14.20
2023-02-28T09:35:03.910Z,21.50
2023-02-28T09:40:06.797Z,19.20
2023-02-28T09:45:25.542Z,13.10
2023-02-28T09:50:27.297Z,10.70
2023-02-28T09:55:46.526Z,12.70
2023-02-28T10:00:58.990Z,8.00
2023-02-28T10:06:18.001Z,13.50
2023-02-28T10:11:21.727Z,16.20
2023-02-28T10:16:34.623Z,19.10
2023-02-28T10:21:48.761Z,14.80
2023-02-28T10:26:53.757Z,14.50
2023-02-28T10:31:55.449Z,17.10
2023-02-28T10:36:57.378Z,14.50
2023-02-28T10:41:59.114Z,16.30
2023-02-28T10:47:01.168Z,19.60
2023-02-28T10:52:02.995Z,18.70
2023-02-28T10:57:16.952Z,15.80
2023-02-28T11:02:39.214Z,16.50
2023-02-28T11:07:52.866Z,27.20
2023-02-28T11:12:58.172Z,15.50
2023-02-28T11:18:21.981Z,17.50
2023-02-28T11:23:28.786Z,24.30
2023-02-28T11:28:36.493Z,16.60
2023-02-28T11:33:49.802Z,24.00
2023-02-28T11:38:54.018Z,23.10
2023-02-28T11:44:32.240Z,23.50
2023-02-28T11:50:08.498Z,20.00
2023-02-28T11:55:31.296Z,12.50
2023-02-28T12:01:10.702Z,23.00
2023-02-28T12:06:43.097Z,14.80
2023-02-28T12:11:56.305Z,23.90
2023-02-28T12:17:23.514Z,18.30
2023-02-28T12:22:31.566Z,31.10
2023-02-28T12:27:40.760Z,20.90
2023-02-28T12:32:47.806Z,24.40
2023-02-28T12:37:59.950Z,22.00
2023-02-28T12:43:08.400Z,19.30
2023-02-28T12:48:16.653Z,32.40
2023-02-28T12:53:57.812Z,22.80
2023-02-28T12:59:05.919Z,25.10
2023-02-28T13:04:38.551Z,37.00
2023-02-28T13:09:41.018Z,18.30
2023-02-28T13:14:43.613Z,16.70
2023-02-28T13:19:56.432Z,37.10
2023-02-28T13:24:58.789Z,25.00
2023-02-28T13:30:01.453Z,24.60
2023-02-28T13:35:06.113Z,32.70
2023-02-28T13:40:10.932Z,32.70
2023-02-28T13:45:12.737Z,15.60
2023-02-28T13:50:39.000Z,26.40
2023-02-28T13:56:05.584Z,28.60
2023-02-28T14:01:32.953Z,24.60
2023-02-28T14:06:36.649Z,36.30
2023-02-28T14:11:40.637Z,21.80
2023-02-28T14:16:48.011Z,19.10
2023-02-28T14:22:20.077Z,21.90
2023-02-28T14:27:43.834Z,20.80
2023-02-28T14:32:55.511Z,26.00
2023-02-28T14:37:57.968Z,20.60
2023-02-28T14:43:01.989Z,23.00
2023-02-28T14:48:09.326Z,29.80
2023-02-28T14:53:18.906Z,18.90
2023-02-28T14:58:32.202Z,21.70
2023-02-28T15:03:36.816Z,22.90
2023-02-28T15:08:38.549Z,25.30
2023-02-28T15:13:52.679Z,16.00
2023-02-28T15:18:58.918Z,21.70
2023-02-28T15:24:15.278Z,19.80
2023-02-28T15:29:23.766Z,33.80
2023-02-28T15:34:45.319Z,29.70
2023-02-28T15:39:48.359Z,25.50
2023-02-28T15:44:50.360Z,21.40
2023-02-28T15:49:55.735Z,24.80
2023-02-28T15:54:57.471Z,21.10
2023-02-28T16:00:05.462Z,18.80
2023-02-28T16:05:13.590Z,28.30
2023-02-28T16:10:15.690Z,34.20
2023-02-28T16:15:29.963Z,20.90
2023-02-28T16:20:32.300Z,29.80
2023-02-28T16:25:43.450Z,32.20
2023-02-28T16:35:46.768Z,48.50
2023-02-28T16:40:50.816Z,45.30
2023-02-28T16:46:01.261Z,65.90
2023-02-28T16:51:05.338Z,60.80
2023-02-28T16:56:11.975Z,41.60
2023-02-28T17:01:14.653Z,44.30
2023-02-28T17:06:31.453Z,32.50
2023-02-28T17:11:33.769Z,35.30
2023-02-28T17:16:40.574Z,42.20
2023-02-28T17:21:43.187Z,39.60
2023-02-28T17:26:45.091Z,47.60
2023-02-28T17:31:46.882Z,49.50
2023-02-28T17:36:51.405Z,40.60
2023-02-28T17:41:54.418Z,56.20
2023-02-28T17:46:57.296Z,67.80
2023-02-28T17:51:58.951Z,46.10
2023-02-28T17:57:01.025Z,67.70
2023-02-28T18:02:04.564Z,83.50
2023-02-28T18:07:13.412Z,45.80
2023-02-28T18:12:15.069Z,62.10
2023-02-28T18:17:16.761Z,59.80
2023-02-28T18:22:18.463Z,91.00
2023-02-28T18:27:20.188Z,65.70
2023-02-28T18:32:21.938Z,54.70
2023-02-28T18:37:53.305Z,59.40
2023-02-28T18:43:20.052Z,81.50
2023-02-28T18:48:23.271Z,53.80
2023-02-28T18:53:24.964Z,179.10
2023-02-28T18:58:27.506Z,168.20
2023-02-28T19:03:29.643Z,121.10
2023-02-28T19:08:31.423Z,96.00
2023-02-28T19:13:33.089Z,110.10
2023-02-28T19:18:34.917Z,91.10
2023-02-28T19:23:37.857Z,131.50
2023-02-28T19:28:40.445Z,149.00
2023-02-28T19:33:42.693Z,151.70
2023-02-28T19:38:45.036Z,96.10
2023-02-28T19:43:47.465Z,99.50
2023-02-28T19:48:49.239Z,121.90
2023-02-28T19:53:52.498Z,280.80
2023-02-28T19:58:54.143Z,193.10
2023-02-28T20:03:55.975Z,270.40
2023-02-28T20:08:57.661Z,182.80
2023-02-28T20:14:00.555Z,172.40
2023-02-28T20:19:02.349Z,167.80
2023-02-28T20:24:04.438Z,314.50
2023-02-28T20:29:08.551Z,166.20
2023-02-28T20:34:11.244Z,155.30
2023-02-28T20:39:13.581Z,149.60
2023-02-28T20:44:15.297Z,120.60
2023-02-28T20:49:17.192Z,59.80
2023-02-28T20:54:19.029Z,110.20
2023-02-28T20:59:22.254Z,153.30
2023-02-28T21:04:24.017Z,88.60
2023-02-28T21:09:25.779Z,90.70
2023-02-28T21:14:28.600Z,165.10
2023-02-28T21:19:30.303Z,153.70
2023-02-28T21:24:32.080Z,86.50
2023-02-28T21:29:33.799Z,98.10
2023-02-28T21:34:35.433Z,122.80
2023-02-28T21:39:37.177Z,87.40
2023-02-28T21:44:38.876Z,125.70
2023-02-28T21:49:40.514Z,100.70
2023-02-28T21:54:42.292Z,104.50
2023-02-28T21:59:44.051Z,293.60
2023-02-28T22:04:45.789Z,291.90
2023-02-28T22:09:48.106Z,323.70
2023-02-28T22:14:56.627Z,365.60
2023-02-28T22:19:59.418Z,377.00
2023-02-28T22:25:01.150Z,243.20
2023-02-28T22:30:03.274Z,199.90
2023-02-28T22:35:08.215Z,372.90
2023-02-28T22:40:10.571Z,489.30
2023-02-28T22:45:13.541Z,271.50
2023-02-28T22:50:20.432Z,224.20
2023-02-28T22:55:25.015Z,214.50
2023-02-28T23:00:26.691Z,206.40
2023-02-28T23:05:30.512Z,212.10
2023-02-28T23:10:32.238Z,369.80
2023-02-28T23:15:34.223Z,365.00
2023-02-28T23:20:36.084Z,221.70
2023-02-28T23:25:41.580Z,260.10
2023-02-28T23:30:43.310Z,205.70
2023-02-28T23:35:45.243Z,267.60
2023-02-28T23:40:47.011Z,188.30
2023-02-28T23:45:57.735Z,188.90
2023-02-28T23:51:08.507Z,133.90
2023-02-28T23:56:15.893Z,116.00
